Terminal Aerodrome Forecast
Issued by NWS Wilmington, OH

Current Version | Previous Version | Text Only | Print | Product List | Glossary Off
Versions: 1 2 3 4 5 6 7 8 9 10 11 12 13 14 15 16 17 18 19 20 21 22 23

000
FTUS41 KILN 220858 AAA
TAFCVG
TAF AMD
KCVG 220858Z 2209/2312 03009KT P6SM VCSH SCT025 BKN050
      TEMPO 2209/2212 BKN025
     FM221200 04012KT P6SM -RA SCT025 BKN035
     FM221700 05012G18KT P6SM OVC035
     FM222100 05012G18KT P6SM OVC060=

USA.gov is the U.S. government's official web portal to all federal, state and local government web resources and services.